sensor_id;sensor_type;location;lat;lon;timestamp;temperature;humidity
75738;DHT22;64356;45.638;13.764;2023-06-26T00:02:14;27.90;47.30
75738;DHT22;64356;45.638;13.764;2023-06-26T00:04:42;27.90;47.30
75738;DHT22;64356;45.638;13.764;2023-06-26T00:07:08;27.90;47.20
75738;DHT22;64356;45.638;13.764;2023-06-26T00:09:34;27.80;47.00
75738;DHT22;64356;45.638;13.764;2023-06-26T00:12:00;27.80;47.00
75738;DHT22;64356;45.638;13.764;2023-06-26T00:14:25;27.80;46.90
75738;DHT22;64356;45.638;13.764;2023-06-26T00:16:51;27.80;46.90
75738;DHT22;64356;45.638;13.764;2023-06-26T00:19:17;27.90;46.90
75738;DHT22;64356;45.638;13.764;2023-06-26T00:21:43;27.80;46.60
75738;DHT22;64356;45.638;13.764;2023-06-26T00:24:17;27.80;46.60
75738;DHT22;64356;45.638;13.764;2023-06-26T00:26:45;27.80;46.40
75738;DHT22;64356;45.638;13.764;2023-06-26T00:29:11;27.90;46.40
75738;DHT22;64356;45.638;13.764;2023-06-26T00:31:37;27.80;46.20
75738;DHT22;64356;45.638;13.764;2023-06-26T00:34:03;27.90;46.20
75738;DHT22;64356;45.638;13.764;2023-06-26T00:36:29;27.90;46.20
75738;DHT22;64356;45.638;13.764;2023-06-26T00:38:55;27.90;46.00
75738;DHT22;64356;45.638;13.764;2023-06-26T00:41:20;27.90;45.90
75738;DHT22;64356;45.638;13.764;2023-06-26T00:43:46;27.90;45.90
75738;DHT22;64356;45.638;13.764;2023-06-26T00:46:15;27.90;45.70
75738;DHT22;64356;45.638;13.764;2023-06-26T00:48:45;27.80;45.70
75738;DHT22;64356;45.638;13.764;2023-06-26T00:51:11;27.90;45.60
75738;DHT22;64356;45.638;13.764;2023-06-26T00:53:37;27.90;45.60
75738;DHT22;64356;45.638;13.764;2023-06-26T00:56:03;27.90;45.50
75738;DHT22;64356;45.638;13.764;2023-06-26T00:58:30;27.80;45.90
75738;DHT22;64356;45.638;13.764;2023-06-26T01:00:55;27.90;45.40
75738;DHT22;64356;45.638;13.764;2023-06-26T01:03:23;27.90;45.30
75738;DHT22;64356;45.638;13.764;2023-06-26T01:05:52;27.90;45.30
75738;DHT22;64356;45.638;13.764;2023-06-26T01:08:20;27.80;45.10
75738;DHT22;64356;45.638;13.764;2023-06-26T01:10:46;27.80;45.20
75738;DHT22;64356;45.638;13.764;2023-06-26T01:13:13;27.80;45.10
75738;DHT22;64356;45.638;13.764;2023-06-26T01:15:41;27.80;45.00
75738;DHT22;64356;45.638;13.764;2023-06-26T01:18:07;27.80;45.00
75738;DHT22;64356;45.638;13.764;2023-06-26T01:20:35;27.90;45.00
75738;DHT22;64356;45.638;13.764;2023-06-26T01:26:22;27.80;44.90
75738;DHT22;64356;45.638;13.764;2023-06-26T01:28:50;27.80;44.80
75738;DHT22;64356;45.638;13.764;2023-06-26T01:31:17;27.80;44.70
75738;DHT22;64356;45.638;13.764;2023-06-26T01:33:43;27.90;44.90
75738;DHT22;64356;45.638;13.764;2023-06-26T01:36:10;27.90;44.90
75738;DHT22;64356;45.638;13.764;2023-06-26T01:38:36;27.90;44.90
75738;DHT22;64356;45.638;13.764;2023-06-26T01:41:02;27.90;44.90
75738;DHT22;64356;45.638;13.764;2023-06-26T01:43:52;27.90;44.80
75738;DHT22;64356;45.638;13.764;2023-06-26T01:46:25;27.90;44.80
75738;DHT22;64356;45.638;13.764;2023-06-26T01:51:55;27.90;44.70
75738;DHT22;64356;45.638;13.764;2023-06-26T01:54:23;27.90;44.60
75738;DHT22;64356;45.638;13.764;2023-06-26T01:56:52;27.90;44.60
75738;DHT22;64356;45.638;13.764;2023-06-26T01:59:20;27.90;44.60
75738;DHT22;64356;45.638;13.764;2023-06-26T02:01:46;27.90;44.50
75738;DHT22;64356;45.638;13.764;2023-06-26T02:04:12;27.90;44.50
75738;DHT22;64356;45.638;13.764;2023-06-26T02:06:38;27.90;44.50
75738;DHT22;64356;45.638;13.764;2023-06-26T02:09:04;27.90;44.40
75738;DHT22;64356;45.638;13.764;2023-06-26T02:11:30;27.90;44.50
75738;DHT22;64356;45.638;13.764;2023-06-26T02:13:55;27.90;44.50
75738;DHT22;64356;45.638;13.764;2023-06-26T02:16:21;27.90;44.50
75738;DHT22;64356;45.638;13.764;2023-06-26T02:18:47;27.90;44.50
75738;DHT22;64356;45.638;13.764;2023-06-26T02:21:13;27.90;44.60
75738;DHT22;64356;45.638;13.764;2023-06-26T02:23:38;27.90;44.70
75738;DHT22;64356;45.638;13.764;2023-06-26T02:26:04;27.90;44.60
75738;DHT22;64356;45.638;13.764;2023-06-26T02:28:30;27.90;44.60
75738;DHT22;64356;45.638;13.764;2023-06-26T02:30:56;27.90;44.70
75738;DHT22;64356;45.638;13.764;2023-06-26T02:33:22;27.90;44.70
75738;DHT22;64356;45.638;13.764;2023-06-26T02:35:48;27.90;44.90
75738;DHT22;64356;45.638;13.764;2023-06-26T02:38:15;27.90;44.80
75738;DHT22;64356;45.638;13.764;2023-06-26T02:40:41;27.90;44.80
75738;DHT22;64356;45.638;13.764;2023-06-26T02:43:07;27.90;44.80
75738;DHT22;64356;45.638;13.764;2023-06-26T02:45:32;27.90;44.80
75738;DHT22;64356;45.638;13.764;2023-06-26T02:47:58;27.90;44.90
75738;DHT22;64356;45.638;13.764;2023-06-26T02:50:24;27.90;44.90
75738;DHT22;64356;45.638;13.764;2023-06-26T02:52:49;27.90;44.90
75738;DHT22;64356;45.638;13.764;2023-06-26T02:55:18;27.90;45.00
75738;DHT22;64356;45.638;13.764;2023-06-26T02:57:44;27.90;44.90
75738;DHT22;64356;45.638;13.764;2023-06-26T03:00:11;27.90;44.80
75738;DHT22;64356;45.638;13.764;2023-06-26T03:02:37;27.90;44.80
75738;DHT22;64356;45.638;13.764;2023-06-26T03:05:02;27.90;44.90
75738;DHT22;64356;45.638;13.764;2023-06-26T03:07:29;27.90;44.90
75738;DHT22;64356;45.638;13.764;2023-06-26T03:09:55;27.90;44.90
75738;DHT22;64356;45.638;13.764;2023-06-26T03:12:21;27.80;44.90
75738;DHT22;64356;45.638;13.764;2023-06-26T03:14:46;27.90;45.00
75738;DHT22;64356;45.638;13.764;2023-06-26T03:17:12;27.80;45.00
75738;DHT22;64356;45.638;13.764;2023-06-26T03:19:38;27.80;45.10
75738;DHT22;64356;45.638;13.764;2023-06-26T03:22:03;27.80;45.20
75738;DHT22;64356;45.638;13.764;2023-06-26T03:24:29;27.80;45.20
75738;DHT22;64356;45.638;13.764;2023-06-26T03:26:55;27.80;45.20
75738;DHT22;64356;45.638;13.764;2023-06-26T03:29:21;27.80;45.30
75738;DHT22;64356;45.638;13.764;2023-06-26T03:31:46;27.80;45.30
75738;DHT22;64356;45.638;13.764;2023-06-26T03:34:12;27.80;45.30
75738;DHT22;64356;45.638;13.764;2023-06-26T03:36:38;27.80;45.30
75738;DHT22;64356;45.638;13.764;2023-06-26T03:39:03;27.80;45.40
75738;DHT22;64356;45.638;13.764;2023-06-26T03:41:29;27.80;45.40
75738;DHT22;64356;45.638;13.764;2023-06-26T03:43:55;27.80;45.50
75738;DHT22;64356;45.638;13.764;2023-06-26T03:46:22;27.80;45.50
75738;DHT22;64356;45.638;13.764;2023-06-26T03:48:48;27.80;46.00
75738;DHT22;64356;45.638;13.764;2023-06-26T03:51:14;27.80;45.50
75738;DHT22;64356;45.638;13.764;2023-06-26T03:53:40;27.80;45.50
75738;DHT22;64356;45.638;13.764;2023-06-26T03:56:06;27.80;45.50
75738;DHT22;64356;45.638;13.764;2023-06-26T03:58:31;27.90;45.60
75738;DHT22;64356;45.638;13.764;2023-06-26T04:00:57;27.80;45.50
75738;DHT22;64356;45.638;13.764;2023-06-26T04:03:23;27.80;45.50
75738;DHT22;64356;45.638;13.764;2023-06-26T04:05:49;27.80;45.60
75738;DHT22;64356;45.638;13.764;2023-06-26T04:08:15;27.80;45.70
75738;DHT22;64356;45.638;13.764;2023-06-26T04:10:41;27.80;45.60
75738;DHT22;64356;45.638;13.764;2023-06-26T04:13:06;27.80;45.50
75738;DHT22;64356;45.638;13.764;2023-06-26T04:15:32;27.80;45.50
75738;DHT22;64356;45.638;13.764;2023-06-26T04:17:58;27.80;45.50
75738;DHT22;64356;45.638;13.764;2023-06-26T04:20:23;27.80;45.60
75738;DHT22;64356;45.638;13.764;2023-06-26T04:22:49;27.80;45.70
75738;DHT22;64356;45.638;13.764;2023-06-26T04:25:15;27.80;45.60
75738;DHT22;64356;45.638;13.764;2023-06-26T04:27:40;27.80;45.50
75738;DHT22;64356;45.638;13.764;2023-06-26T04:30:07;27.80;45.30
75738;DHT22;64356;45.638;13.764;2023-06-26T04:32:33;27.80;45.30
75738;DHT22;64356;45.638;13.764;2023-06-26T04:34:59;27.80;45.30
75738;DHT22;64356;45.638;13.764;2023-06-26T04:37:25;27.80;45.20
75738;DHT22;64356;45.638;13.764;2023-06-26T04:39:51;27.80;45.20
75738;DHT22;64356;45.638;13.764;2023-06-26T04:42:17;27.80;45.20
75738;DHT22;64356;45.638;13.764;2023-06-26T04:44:43;27.80;45.20
75738;DHT22;64356;45.638;13.764;2023-06-26T04:47:09;27.80;45.20
75738;DHT22;64356;45.638;13.764;2023-06-26T04:49:35;27.90;45.20
75738;DHT22;64356;45.638;13.764;2023-06-26T04:52:00;27.80;45.10
75738;DHT22;64356;45.638;13.764;2023-06-26T04:54:26;27.90;45.20
75738;DHT22;64356;45.638;13.764;2023-06-26T04:56:53;27.80;45.20
75738;DHT22;64356;45.638;13.764;2023-06-26T04:59:19;27.80;45.20
75738;DHT22;64356;45.638;13.764;2023-06-26T05:01:44;27.80;45.40
75738;DHT22;64356;45.638;13.764;2023-06-26T05:04:14;27.80;45.50
75738;DHT22;64356;45.638;13.764;2023-06-26T05:06:40;27.80;45.50
75738;DHT22;64356;45.638;13.764;2023-06-26T05:09:06;27.80;45.60
75738;DHT22;64356;45.638;13.764;2023-06-26T05:11:32;27.80;45.70
75738;DHT22;64356;45.638;13.764;2023-06-26T05:13:57;27.80;45.80
75738;DHT22;64356;45.638;13.764;2023-06-26T05:16:23;27.80;45.90
75738;DHT22;64356;45.638;13.764;2023-06-26T05:18:49;27.80;45.90
75738;DHT22;64356;45.638;13.764;2023-06-26T05:21:16;27.80;45.90
75738;DHT22;64356;45.638;13.764;2023-06-26T05:23:42;27.80;45.90
75738;DHT22;64356;45.638;13.764;2023-06-26T05:26:10;27.80;45.90
75738;DHT22;64356;45.638;13.764;2023-06-26T05:28:36;27.80;46.00
75738;DHT22;64356;45.638;13.764;2023-06-26T05:31:03;27.80;46.10
75738;DHT22;64356;45.638;13.764;2023-06-26T05:33:30;27.80;46.10
75738;DHT22;64356;45.638;13.764;2023-06-26T05:35:56;27.80;46.10
75738;DHT22;64356;45.638;13.764;2023-06-26T05:38:24;27.80;46.20
75738;DHT22;64356;45.638;13.764;2023-06-26T05:40:50;27.70;46.00
75738;DHT22;64356;45.638;13.764;2023-06-26T05:43:16;27.70;46.10
75738;DHT22;64356;45.638;13.764;2023-06-26T05:45:47;27.60;45.80
75738;DHT22;64356;45.638;13.764;2023-06-26T05:48:13;27.60;45.60
75738;DHT22;64356;45.638;13.764;2023-06-26T05:50:39;27.60;45.90
75738;DHT22;64356;45.638;13.764;2023-06-26T05:53:07;27.60;45.60
75738;DHT22;64356;45.638;13.764;2023-06-26T05:55:33;27.60;45.90
75738;DHT22;64356;45.638;13.764;2023-06-26T05:58:00;27.60;45.90
75738;DHT22;64356;45.638;13.764;2023-06-26T06:00:27;27.60;45.20
75738;DHT22;64356;45.638;13.764;2023-06-26T06:02:53;27.60;45.20
75738;DHT22;64356;45.638;13.764;2023-06-26T06:05:22;27.60;45.10
75738;DHT22;64356;45.638;13.764;2023-06-26T06:07:48;27.60;45.20
75738;DHT22;64356;45.638;13.764;2023-06-26T06:10:14;27.50;45.30
75738;DHT22;64356;45.638;13.764;2023-06-26T06:12:40;27.50;45.40
75738;DHT22;64356;45.638;13.764;2023-06-26T06:15:06;27.60;45.40
75738;DHT22;64356;45.638;13.764;2023-06-26T06:17:31;27.60;45.20
75738;DHT22;64356;45.638;13.764;2023-06-26T06:19:57;27.60;44.90
75738;DHT22;64356;45.638;13.764;2023-06-26T06:22:23;27.50;44.70
75738;DHT22;64356;45.638;13.764;2023-06-26T06:24:50;27.50;44.80
75738;DHT22;64356;45.638;13.764;2023-06-26T06:27:16;27.50;44.90
75738;DHT22;64356;45.638;13.764;2023-06-26T06:29:41;27.50;44.90
75738;DHT22;64356;45.638;13.764;2023-06-26T06:32:07;27.50;44.80
75738;DHT22;64356;45.638;13.764;2023-06-26T06:34:33;27.50;44.80
75738;DHT22;64356;45.638;13.764;2023-06-26T06:36:59;27.50;44.60
75738;DHT22;64356;45.638;13.764;2023-06-26T06:39:25;27.50;44.70
75738;DHT22;64356;45.638;13.764;2023-06-26T06:41:51;27.60;44.80
75738;DHT22;64356;45.638;13.764;2023-06-26T06:44:16;27.60;44.90
75738;DHT22;64356;45.638;13.764;2023-06-26T06:46:42;27.60;45.00
75738;DHT22;64356;45.638;13.764;2023-06-26T06:49:08;27.60;45.30
75738;DHT22;64356;45.638;13.764;2023-06-26T06:51:34;27.70;44.70
75738;DHT22;64356;45.638;13.764;2023-06-26T06:54:00;27.60;44.50
75738;DHT22;64356;45.638;13.764;2023-06-26T06:56:26;27.60;44.40
75738;DHT22;64356;45.638;13.764;2023-06-26T06:58:52;27.60;44.40
75738;DHT22;64356;45.638;13.764;2023-06-26T07:01:17;27.60;44.20
75738;DHT22;64356;45.638;13.764;2023-06-26T07:03:43;27.60;44.10
75738;DHT22;64356;45.638;13.764;2023-06-26T07:06:09;27.60;44.20
75738;DHT22;64356;45.638;13.764;2023-06-26T07:08:34;27.70;44.30
75738;DHT22;64356;45.638;13.764;2023-06-26T07:11:00;27.70;44.30
75738;DHT22;64356;45.638;13.764;2023-06-26T07:13:27;27.70;44.70
75738;DHT22;64356;45.638;13.764;2023-06-26T07:15:52;27.70;44.80
75738;DHT22;64356;45.638;13.764;2023-06-26T07:18:18;27.70;44.80
75738;DHT22;64356;45.638;13.764;2023-06-26T07:20:44;27.70;44.80
75738;DHT22;64356;45.638;13.764;2023-06-26T07:23:09;27.80;44.90
75738;DHT22;64356;45.638;13.764;2023-06-26T07:25:36;27.70;45.00
75738;DHT22;64356;45.638;13.764;2023-06-26T07:28:02;27.70;45.60
75738;DHT22;64356;45.638;13.764;2023-06-26T07:30:27;27.70;46.00
75738;DHT22;64356;45.638;13.764;2023-06-26T07:32:53;27.80;46.20
75738;DHT22;64356;45.638;13.764;2023-06-26T07:35:19;27.80;46.20
75738;DHT22;64356;45.638;13.764;2023-06-26T07:37:45;27.80;46.60
75738;DHT22;64356;45.638;13.764;2023-06-26T07:40:10;27.90;47.00
75738;DHT22;64356;45.638;13.764;2023-06-26T07:42:36;27.80;47.10
75738;DHT22;64356;45.638;13.764;2023-06-26T07:45:03;27.80;47.30
75738;DHT22;64356;45.638;13.764;2023-06-26T07:47:35;27.90;48.00
75738;DHT22;64356;45.638;13.764;2023-06-26T07:50:02;27.80;48.40
75738;DHT22;64356;45.638;13.764;2023-06-26T07:52:27;27.90;48.90
75738;DHT22;64356;45.638;13.764;2023-06-26T07:54:53;27.90;49.40
75738;DHT22;64356;45.638;13.764;2023-06-26T07:57:19;27.90;49.30
75738;DHT22;64356;45.638;13.764;2023-06-26T07:59:44;27.90;49.30
75738;DHT22;64356;45.638;13.764;2023-06-26T08:02:10;27.90;49.30
75738;DHT22;64356;45.638;13.764;2023-06-26T08:04:36;27.90;49.20
75738;DHT22;64356;45.638;13.764;2023-06-26T08:07:02;27.90;49.00
75738;DHT22;64356;45.638;13.764;2023-06-26T08:09:29;27.90;48.80
75738;DHT22;64356;45.638;13.764;2023-06-26T08:11:56;27.90;48.40
75738;DHT22;64356;45.638;13.764;2023-06-26T08:14:22;27.90;47.80
75738;DHT22;64356;45.638;13.764;2023-06-26T08:16:49;27.90;47.60
75738;DHT22;64356;45.638;13.764;2023-06-26T08:19:15;27.90;47.10
75738;DHT22;64356;45.638;13.764;2023-06-26T08:21:42;27.90;46.80
75738;DHT22;64356;45.638;13.764;2023-06-26T08:24:09;28.00;46.80
75738;DHT22;64356;45.638;13.764;2023-06-26T08:26:35;28.00;46.60
75738;DHT22;64356;45.638;13.764;2023-06-26T08:29:01;28.00;46.40
75738;DHT22;64356;45.638;13.764;2023-06-26T08:31:33;28.00;46.10
75738;DHT22;64356;45.638;13.764;2023-06-26T08:34:00;28.00;46.60
75738;DHT22;64356;45.638;13.764;2023-06-26T08:36:26;28.00;47.40
75738;DHT22;64356;45.638;13.764;2023-06-26T08:38:52;28.00;47.50
75738;DHT22;64356;45.638;13.764;2023-06-26T08:41:17;28.00;47.50
75738;DHT22;64356;45.638;13.764;2023-06-26T08:43:43;28.10;48.10
75738;DHT22;64356;45.638;13.764;2023-06-26T08:46:09;28.10;48.90
75738;DHT22;64356;45.638;13.764;2023-06-26T08:48:35;28.10;49.60
75738;DHT22;64356;45.638;13.764;2023-06-26T08:51:12;28.10;49.50
75738;DHT22;64356;45.638;13.764;2023-06-26T08:53:57;28.10;49.00
75738;DHT22;64356;45.638;13.764;2023-06-26T08:56:24;28.10;49.60
75738;DHT22;64356;45.638;13.764;2023-06-26T08:58:52;28.20;49.50
75738;DHT22;64356;45.638;13.764;2023-06-26T09:01:18;28.20;49.60
75738;DHT22;64356;45.638;13.764;2023-06-26T09:03:44;28.20;49.90
75738;DHT22;64356;45.638;13.764;2023-06-26T09:06:10;28.20;50.30
75738;DHT22;64356;45.638;13.764;2023-06-26T09:08:36;28.20;50.60
75738;DHT22;64356;45.638;13.764;2023-06-26T09:11:03;28.30;50.50
75738;DHT22;64356;45.638;13.764;2023-06-26T09:13:30;28.30;50.50
75738;DHT22;64356;45.638;13.764;2023-06-26T09:15:56;28.30;50.30
75738;DHT22;64356;45.638;13.764;2023-06-26T09:18:23;28.40;49.50
75738;DHT22;64356;45.638;13.764;2023-06-26T09:20:49;28.40;49.40
75738;DHT22;64356;45.638;13.764;2023-06-26T09:23:15;28.40;48.90
75738;DHT22;64356;45.638;13.764;2023-06-26T09:25:41;28.30;48.60
75738;DHT22;64356;45.638;13.764;2023-06-26T09:28:08;28.30;48.10
75738;DHT22;64356;45.638;13.764;2023-06-26T09:30:35;28.30;48.10
75738;DHT22;64356;45.638;13.764;2023-06-26T09:33:18;28.30;48.20
75738;DHT22;64356;45.638;13.764;2023-06-26T09:35:44;28.30;47.80
75738;DHT22;64356;45.638;13.764;2023-06-26T09:38:12;28.40;47.40
75738;DHT22;64356;45.638;13.764;2023-06-26T09:40:38;28.40;47.20
75738;DHT22;64356;45.638;13.764;2023-06-26T09:43:05;28.40;47.10
75738;DHT22;64356;45.638;13.764;2023-06-26T09:45:34;28.40;47.10
75738;DHT22;64356;45.638;13.764;2023-06-26T09:48:05;28.50;47.30
75738;DHT22;64356;45.638;13.764;2023-06-26T09:50:33;28.50;47.40
75738;DHT22;64356;45.638;13.764;2023-06-26T09:53:08;28.50;47.20
75738;DHT22;64356;45.638;13.764;2023-06-26T09:55:35;28.50;47.30
75738;DHT22;64356;45.638;13.764;2023-06-26T09:58:05;28.50;46.80
75738;DHT22;64356;45.638;13.764;2023-06-26T10:00:32;28.60;46.50
75738;DHT22;64356;45.638;13.764;2023-06-26T10:02:59;28.70;46.40
75738;DHT22;64356;45.638;13.764;2023-06-26T10:05:25;28.80;46.20
75738;DHT22;64356;45.638;13.764;2023-06-26T10:07:51;28.80;46.10
75738;DHT22;64356;45.638;13.764;2023-06-26T10:10:19;28.80;45.10
75738;DHT22;64356;45.638;13.764;2023-06-26T10:12:48;28.80;45.10
75738;DHT22;64356;45.638;13.764;2023-06-26T10:15:15;28.90;45.20
75738;DHT22;64356;45.638;13.764;2023-06-26T10:17:43;29.00;46.10
75738;DHT22;64356;45.638;13.764;2023-06-26T10:20:10;29.00;46.80
75738;DHT22;64356;45.638;13.764;2023-06-26T10:22:44;29.00;47.10
75738;DHT22;64356;45.638;13.764;2023-06-26T10:25:14;29.00;47.20
75738;DHT22;64356;45.638;13.764;2023-06-26T10:27:42;29.00;47.10
75738;DHT22;64356;45.638;13.764;2023-06-26T10:30:13;29.00;47.50
75738;DHT22;64356;45.638;13.764;2023-06-26T10:32:40;29.10;47.30
75738;DHT22;64356;45.638;13.764;2023-06-26T10:35:06;29.10;47.10
75738;DHT22;64356;45.638;13.764;2023-06-26T10:37:46;29.10;46.90
75738;DHT22;64356;45.638;13.764;2023-06-26T10:40:14;29.10;46.90
75738;DHT22;64356;45.638;13.764;2023-06-26T10:42:40;29.10;47.20
75738;DHT22;64356;45.638;13.764;2023-06-26T10:45:17;29.10;47.80
75738;DHT22;64356;45.638;13.764;2023-06-26T10:47:46;29.20;48.80
75738;DHT22;64356;45.638;13.764;2023-06-26T10:50:20;29.30;50.10
75738;DHT22;64356;45.638;13.764;2023-06-26T10:55:59;29.30;48.30
75738;DHT22;64356;45.638;13.764;2023-06-26T11:01:19;29.40;46.20
75738;DHT22;64356;45.638;13.764;2023-06-26T11:06:27;29.40;46.70
75738;DHT22;64356;45.638;13.764;2023-06-26T11:09:23;29.50;47.00
75738;DHT22;64356;45.638;13.764;2023-06-26T11:14:21;29.50;47.80
75738;DHT22;64356;45.638;13.764;2023-06-26T11:16:48;29.50;47.60
75738;DHT22;64356;45.638;13.764;2023-06-26T11:19:16;29.60;47.70
75738;DHT22;64356;45.638;13.764;2023-06-26T11:21:41;29.60;47.50
75738;DHT22;64356;45.638;13.764;2023-06-26T11:24:08;29.60;47.50
75738;DHT22;64356;45.638;13.764;2023-06-26T11:26:41;29.60;47.50
75738;DHT22;64356;45.638;13.764;2023-06-26T11:29:07;29.60;48.70
75738;DHT22;64356;45.638;13.764;2023-06-26T11:31:34;29.50;48.90
75738;DHT22;64356;45.638;13.764;2023-06-26T11:34:06;29.50;49.30
75738;DHT22;64356;45.638;13.764;2023-06-26T11:36:33;29.40;49.50
75738;DHT22;64356;45.638;13.764;2023-06-26T11:39:05;29.30;49.60
75738;DHT22;64356;45.638;13.764;2023-06-26T11:41:32;29.40;50.20
75738;DHT22;64356;45.638;13.764;2023-06-26T11:44:02;29.40;49.80
75738;DHT22;64356;45.638;13.764;2023-06-26T11:46:29;29.50;49.70
75738;DHT22;64356;45.638;13.764;2023-06-26T11:48:55;29.50;49.60
75738;DHT22;64356;45.638;13.764;2023-06-26T11:51:21;29.50;49.90
75738;DHT22;64356;45.638;13.764;2023-06-26T11:53:47;29.50;50.10
75738;DHT22;64356;45.638;13.764;2023-06-26T11:56:17;29.60;50.00
75738;DHT22;64356;45.638;13.764;2023-06-26T12:01:35;29.60;52.50
75738;DHT22;64356;45.638;13.764;2023-06-26T12:04:03;29.60;52.50
75738;DHT22;64356;45.638;13.764;2023-06-26T12:06:31;29.70;53.20
75738;DHT22;64356;45.638;13.764;2023-06-26T12:08:58;29.70;53.30
75738;DHT22;64356;45.638;13.764;2023-06-26T12:11:25;29.80;54.20
75738;DHT22;64356;45.638;13.764;2023-06-26T12:13:52;29.80;53.20
75738;DHT22;64356;45.638;13.764;2023-06-26T12:16:18;29.90;52.90
75738;DHT22;64356;45.638;13.764;2023-06-26T12:18:44;29.90;51.60
75738;DHT22;64356;45.638;13.764;2023-06-26T12:24:03;30.00;49.50
75738;DHT22;64356;45.638;13.764;2023-06-26T12:26:30;30.00;49.10
75738;DHT22;64356;45.638;13.764;2023-06-26T12:29:07;29.90;50.40
75738;DHT22;64356;45.638;13.764;2023-06-26T12:31:33;29.90;50.30
75738;DHT22;64356;45.638;13.764;2023-06-26T12:34:09;30.00;49.70
75738;DHT22;64356;45.638;13.764;2023-06-26T12:36:42;30.00;49.50
75738;DHT22;64356;45.638;13.764;2023-06-26T12:39:10;30.00;49.90
75738;DHT22;64356;45.638;13.764;2023-06-26T12:41:59;30.10;50.50
75738;DHT22;64356;45.638;13.764;2023-06-26T12:46:59;30.10;50.40
75738;DHT22;64356;45.638;13.764;2023-06-26T12:49:36;30.10;49.90
75738;DHT22;64356;45.638;13.764;2023-06-26T12:52:06;30.10;50.10
75738;DHT22;64356;45.638;13.764;2023-06-26T12:54:37;30.10;49.50
75738;DHT22;64356;45.638;13.764;2023-06-26T12:57:03;30.10;49.40
75738;DHT22;64356;45.638;13.764;2023-06-26T12:59:30;30.10;49.50
75738;DHT22;64356;45.638;13.764;2023-06-26T13:01:57;30.10;49.70
75738;DHT22;64356;45.638;13.764;2023-06-26T13:04:23;30.10;50.00
75738;DHT22;64356;45.638;13.764;2023-06-26T13:06:49;30.20;50.20
75738;DHT22;64356;45.638;13.764;2023-06-26T13:09:15;30.10;49.80
75738;DHT22;64356;45.638;13.764;2023-06-26T13:11:41;30.10;49.70
75738;DHT22;64356;45.638;13.764;2023-06-26T13:14:07;30.10;49.00
75738;DHT22;64356;45.638;13.764;2023-06-26T13:16:33;30.10;47.90
75738;DHT22;64356;45.638;13.764;2023-06-26T13:18:59;30.10;47.80
75738;DHT22;64356;45.638;13.764;2023-06-26T13:21:26;30.10;48.10
75738;DHT22;64356;45.638;13.764;2023-06-26T13:23:52;30.10;48.50
75738;DHT22;64356;45.638;13.764;2023-06-26T13:26:19;30.10;48.60
75738;DHT22;64356;45.638;13.764;2023-06-26T13:28:45;30.10;49.60
75738;DHT22;64356;45.638;13.764;2023-06-26T13:31:10;30.10;50.20
75738;DHT22;64356;45.638;13.764;2023-06-26T13:33:36;30.10;50.20
75738;DHT22;64356;45.638;13.764;2023-06-26T13:36:02;30.10;50.10
75738;DHT22;64356;45.638;13.764;2023-06-26T13:38:32;30.20;49.60
75738;DHT22;64356;45.638;13.764;2023-06-26T13:40:58;30.20;49.10
75738;DHT22;64356;45.638;13.764;2023-06-26T13:43:27;30.10;48.90
75738;DHT22;64356;45.638;13.764;2023-06-26T13:45:53;30.10;49.20
75738;DHT22;64356;45.638;13.764;2023-06-26T13:48:20;30.10;49.20
75738;DHT22;64356;45.638;13.764;2023-06-26T13:50:46;30.10;49.50
75738;DHT22;64356;45.638;13.764;2023-06-26T13:53:12;30.10;49.70
75738;DHT22;64356;45.638;13.764;2023-06-26T13:55:39;30.10;49.60
75738;DHT22;64356;45.638;13.764;2023-06-26T13:58:05;30.10;49.80
75738;DHT22;64356;45.638;13.764;2023-06-26T14:00:32;30.10;50.00
75738;DHT22;64356;45.638;13.764;2023-06-26T14:02:59;30.10;50.60
75738;DHT22;64356;45.638;13.764;2023-06-26T14:05:25;30.10;50.40
75738;DHT22;64356;45.638;13.764;2023-06-26T14:07:51;30.10;50.30
75738;DHT22;64356;45.638;13.764;2023-06-26T14:10:17;30.10;50.30
75738;DHT22;64356;45.638;13.764;2023-06-26T14:12:43;30.10;51.20
75738;DHT22;64356;45.638;13.764;2023-06-26T14:15:09;30.10;51.90
75738;DHT22;64356;45.638;13.764;2023-06-26T14:17:35;30.20;52.10
75738;DHT22;64356;45.638;13.764;2023-06-26T14:20:00;30.10;50.90
75738;DHT22;64356;45.638;13.764;2023-06-26T14:22:26;30.10;50.60
75738;DHT22;64356;45.638;13.764;2023-06-26T14:24:53;30.10;50.50
75738;DHT22;64356;45.638;13.764;2023-06-26T14:27:18;30.10;49.60
75738;DHT22;64356;45.638;13.764;2023-06-26T14:29:44;30.10;48.50
75738;DHT22;64356;45.638;13.764;2023-06-26T14:32:11;30.10;48.20
75738;DHT22;64356;45.638;13.764;2023-06-26T14:34:36;30.10;47.90
75738;DHT22;64356;45.638;13.764;2023-06-26T14:37:02;30.10;48.70
75738;DHT22;64356;45.638;13.764;2023-06-26T14:39:28;30.10;49.60
75738;DHT22;64356;45.638;13.764;2023-06-26T14:41:53;30.10;50.70
75738;DHT22;64356;45.638;13.764;2023-06-26T14:44:19;30.10;51.90
75738;DHT22;64356;45.638;13.764;2023-06-26T14:46:45;30.00;52.40
75738;DHT22;64356;45.638;13.764;2023-06-26T14:49:10;30.00;52.50
75738;DHT22;64356;45.638;13.764;2023-06-26T14:51:36;30.00;52.50
75738;DHT22;64356;45.638;13.764;2023-06-26T14:54:04;30.00;52.90
75738;DHT22;64356;45.638;13.764;2023-06-26T14:56:29;30.00;52.90
75738;DHT22;64356;45.638;13.764;2023-06-26T14:58:55;29.90;52.50
75738;DHT22;64356;45.638;13.764;2023-06-26T15:01:21;30.00;51.80
75738;DHT22;64356;45.638;13.764;2023-06-26T15:03:47;29.90;50.60
75738;DHT22;64356;45.638;13.764;2023-06-26T15:06:13;29.90;49.80
75738;DHT22;64356;45.638;13.764;2023-06-26T15:08:38;29.90;50.00
75738;DHT22;64356;45.638;13.764;2023-06-26T15:11:04;29.90;51.10
75738;DHT22;64356;45.638;13.764;2023-06-26T15:13:30;29.90;51.80
75738;DHT22;64356;45.638;13.764;2023-06-26T15:15:56;29.90;52.30
75738;DHT22;64356;45.638;13.764;2023-06-26T15:18:21;29.90;52.20
75738;DHT22;64356;45.638;13.764;2023-06-26T15:20:47;29.80;51.80
75738;DHT22;64356;45.638;13.764;2023-06-26T15:23:13;29.80;51.60
75738;DHT22;64356;45.638;13.764;2023-06-26T15:25:39;29.70;51.00
75738;DHT22;64356;45.638;13.764;2023-06-26T15:28:05;29.70;51.00
75738;DHT22;64356;45.638;13.764;2023-06-26T15:30:31;29.70;50.10
75738;DHT22;64356;45.638;13.764;2023-06-26T15:32:57;29.80;49.60
75738;DHT22;64356;45.638;13.764;2023-06-26T15:35:23;29.70;49.30
75738;DHT22;64356;45.638;13.764;2023-06-26T15:37:48;29.60;48.90
75738;DHT22;64356;45.638;13.764;2023-06-26T15:40:15;29.60;48.60